Terminal Aerodrome Forecast
Issued by NWS

Home | Current Version | Previous Version | Text Only | Print | Product List | Glossary On
Versions: 1 2 3 4 5 6 7 8 9 10 11 12 13 14 15 16 17 18 19 20 21 22 23 24 25 26 27 28 29 30
770
FTUS43 KGRR 221745
TAFBTL
TAF
KBTL 221745Z 2218/2318 18013G21KT P6SM BKN150
     FM230100 17012KT P6SM BKN100 WS020/20045KT
     FM230400 17013G21KT P6SM -SHRA BKN070 WS020/20045KT
     FM230900 22014G22KT 6SM -SHRA BR BKN025
     FM231200 27014G22KT 6SM -SHRA BR OVC008
     FM231600 28014G22KT P6SM OVC015=

USA.gov is the U.S. government's official web portal to all federal, state and local government web resources and services.